เทศบาลนครสุราษฎร์ธานี, ประเทศไทย

10:07 PM ICT วัน ตุลาคม 21, 2014 (GMT +0700)
Surat Thani | Change Station
CLOSE
Current Station
Airport
Location: Surat Thani,
Elevation: 23 ft
Nearby Weather Stations

Elev 23 ft 9.13 °N, 99.15 °E | Updated 1 hour ago

Scattered Clouds
มีเมฆคลุมเป็นบางส่วน
79 ฟาเรนไฮน์
Feels Like 79 ฟาเรนไฮน์
N
5
ลม ความผันแปร ลม from ทางทิศเหนือและทิศตะวันตกเฉียงเหนือ

วันนี้
High -- | Low -- ฟาเรนไฮน์
--% Chance of Precip.
Yesterday
High -- | Low -- ฟาเรนไฮน์
Precip. -- นิ้ว
6:11 AM 6:04 PM
เดือนเสี้ยว, 5% visible
ความดัน 29.92 นิ้ว
ทัศนวิสัย 6.2 ไมล์
เมฆ Few 2000 ft
มีเมฆคลุมเป็นบางส่วน 30000 ft
อุณหภูมิที่อากาศอาจจับตัวเป็นหยาดน้ำค้าง 79 ฟาเรนไฮน์
ความชื้น 100%
Rainfall 0.00 นิ้ว
Snow Depth Not available.
UV 0 out of 12
Pollen Not available.
Air Quality Not available.
Flu Activity Not available.
METAR VTSB 211400Z 34004KT 9999 FEW020 SCT300 26/26 Q1013 A2991

More Conditions Fewer Conditions

ความดัน 29.92 นิ้ว
ทัศนวิสัย 6.2 ไมล์
เมฆ Few 2000 ft
มีเมฆคลุมเป็นบางส่วน 30000 ft
อุณหภูมิที่อากาศอาจจับตัวเป็นหยาดน้ำค้าง 79 ฟาเรนไฮน์
ความชื้น 100%
Rainfall 0.00 นิ้ว
Snow Depth Not available.
UV 0 out of 12
Pollen Not available.
Air Quality Not available.
Flu Activity Not available.
METAR VTSB 211400Z 34004KT 9999 FEW020 SCT300 26/26 Q1013 A2991

More Conditions Fewer Conditions

10-Day Weather Forecast

Almanac

ดาราศาสตร์

Oct. 21, 2014 Rise Set
Actual Time 6:11 AM ICT 6:04 PM ICT
Civil Twilight 5:50 AM ICT 6:25 PM ICT
Nautical Twilight 5:25 AM ICT 6:50 PM ICT
Astronomical Twilight 5:01 AM ICT 7:15 PM ICT
Moon 3:56 AM ICT 4:16 PM ICT
Length Of Visible Light 12h 35m
ความยาวของวัน
11h 52m
Tomorrow will be 0m 28s shorter.
เดือนเสี้ยว, 5% of the Moon is Illuminated
วันนี้
เดือนเสี้ยว
Oct 23
New
Oct 30
ไตรมาสแรก
Nov 6
พระจันทร์เต็มดวง
Nov 14
ไตรมาสล่าสุด

Today's Extremes

Country Highs Country Lows

Community

WunderPhotos

Upload Photos

1,763,682 photos uploaded!

WunderBlogs® & News

By Dr. Jeff Masters
Director of Meteorology, Weather Underground
By Kari Strenfel
Meteorologist, Weather Underground
By Christopher C. Burt
Weather Historian, Weather Underground
October 21, 2014
October 21, 2014
October 21, 2014

Nearby

Snow Depth

Not available.

Earthquake Activity

City Distance Mag. Time & Date
No recent earthquake activity has been reported nearby.
Minimum magnitude displayed is 2.5.

Coastal Water Temperatures

สถานที่ อุณหภูมิ
No Stations Reporting

Nearby Weather Stations